Time;durP1;ratioP1;P1;durP2;ratioP2;P2;SDS_P1;SDS_P2;PMS_P1;PMS_P2;Temp;Humidity;BMP_temperature;BMP_pressure;BME280_temperature;BME280_humidity;BME280_pressure;Samples;Min_cycle;Max_cycle;Signal;HPM_P1;HPM_P2
2023/03/24 00:01:53;;;;;;;25.30;7.70;;;;;;;16.84;59.86;98287.82;67616;1281;1016482;-61
2023/03/24 00:04:57;;;;;;;24.50;7.70;;;;;;;16.83;59.82;98288.83;67573;1281;1016211;-62
2023/03/24 00:08:01;;;;;;;22.20;6.90;;;;;;;16.78;59.92;98289.55;67597;1281;1016337;-61
2023/03/24 00:11:05;;;;;;;21.90;6.50;;;;;;;16.80;59.90;98290.50;67525;1280;1018512;-61
2023/03/24 00:14:11;;;;;;;26.50;8.20;;;;;;;16.83;59.69;98294.75;67608;1281;1018319;-61
2023/03/24 00:17:16;;;;;;;24.00;8.40;;;;;;;16.73;59.99;98290.21;67602;1281;1016555;-61
2023/03/24 00:20:19;;;;;;;24.30;8.10;;;;;;;16.74;60.13;98287.51;67618;1281;1016285;-61
2023/03/24 00:23:22;;;;;;;23.20;7.70;;;;;;;16.65;60.34;98286.21;67644;1281;1019432;-61
2023/03/24 00:26:24;;;;;;;25.10;8.10;;;;;;;16.71;60.18;98284.60;67635;1281;1016896;-61
2023/03/24 00:29:27;;;;;;;25.30;7.50;;;;;;;16.71;59.95;98283.94;67611;1281;1015761;-61
2023/03/24 00:32:29;;;;;;;21.70;6.90;;;;;;;16.67;60.11;98282.89;67594;1281;1015918;-60
2023/03/24 00:35:32;;;;;;;22.10;6.60;;;;;;;16.75;60.05;98284.08;67659;1281;1016252;-61
2023/03/24 00:38:35;;;;;;;22.60;6.90;;;;;;;16.68;60.19;98279.30;67652;1281;1015946;-61
2023/03/24 00:41:38;;;;;;;20.10;6.40;;;;;;;16.71;60.20;98280.91;67668;1281;1016292;-61
2023/03/24 00:44:40;;;;;;;18.90;6.20;;;;;;;16.78;60.04;98280.42;67602;1281;1016271;-61
2023/03/24 00:47:43;;;;;;;21.80;6.10;;;;;;;16.77;60.01;98275.93;67615;1281;1016218;-61
2023/03/24 00:50:46;;;;;;;19.60;5.70;;;;;;;16.63;60.62;98272.61;67616;1281;1016011;-61
2023/03/24 00:53:49;;;;;;;20.40;5.60;;;;;;;16.81;59.82;98270.06;67606;1281;1016404;-61
2023/03/24 00:56:54;;;;;;;19.40;5.50;;;;;;;16.63;60.36;98264.73;67630;1281;1016188;-61
2023/03/24 00:59:57;;;;;;;18.80;5.70;;;;;;;16.69;60.00;98265.73;67647;1281;1016344;-60
2023/03/24 01:03:02;;;;;;;19.00;5.90;;;;;;;16.65;60.15;98260.65;67605;1281;1016460;-61
2023/03/24 01:06:04;;;;;;;19.50;5.70;;;;;;;16.68;60.01;98256.35;67638;1281;1016147;-60
2023/03/24 01:09:06;;;;;;;17.90;5.40;;;;;;;16.60;60.27;98253.48;67659;1281;1016334;-61
2023/03/24 01:12:09;;;;;;;20.80;6.00;;;;;;;16.66;60.10;98254.69;67619;1281;1016343;-61
2023/03/24 01:15:12;;;;;;;19.50;6.10;;;;;;;16.67;60.05;98252.34;67591;1281;1016203;-61
2023/03/24 01:18:14;;;;;;;20.00;6.40;;;;;;;16.60;60.26;98247.89;65100;1281;6370471;-61
2023/03/24 01:21:25;;;;;;;20.30;6.40;;;;;;;16.67;60.10;98251.81;67550;1281;1016874;-62
2023/03/24 01:24:28;;;;;;;21.10;6.30;;;;;;;16.63;59.99;98259.59;67596;1281;1016467;-61
2023/03/24 01:27:31;;;;;;;21.50;6.80;;;;;;;16.49;60.32;98262.89;67607;1281;1016025;-61
2023/03/24 01:30:33;;;;;;;;;;;;;;;16.39;60.48;98261.80;67617;1281;1016406;-61
2023/03/24 01:33:36;;;;;;;23.80;7.50;;;;;;;16.32;60.48;98259.52;67619;1281;1016422;-61
2023/03/24 01:36:38;;;;;;;22.60;7.30;;;;;;;16.26;60.67;98256.36;67600;1281;1016152;-61
2023/03/24 01:39:40;;;;;;;24.10;8.00;;;;;;;16.28;60.40;98252.99;67648;1281;1016358;-61
2023/03/24 01:42:43;;;;;;;26.30;7.60;;;;;;;16.17;60.41;98247.48;67674;1281;1016426;-61
2023/03/24 01:45:45;;;;;;;22.10;6.80;;;;;;;16.11;60.36;98246.48;67647;1281;1016108;-61
2023/03/24 01:48:48;;;;;;;22.90;7.60;;;;;;;15.96;60.79;98244.12;67606;1281;1016435;-61
2023/03/24 01:51:50;;;;;;;23.70;8.00;;;;;;;15.84;61.27;98247.03;67622;1281;1017000;-61
2023/03/24 01:54:52;;;;;;;24.90;7.50;;;;;;;15.71;61.53;98248.71;67656;1281;1016408;-61
2023/03/24 01:57:55;;;;;;;23.80;6.50;;;;;;;15.59;61.94;98243.08;67636;1281;1016507;-61
2023/03/24 02:00:57;;;;;;;20.90;6.80;;;;;;;15.50;61.96;98241.07;67584;1281;1017282;-61
2023/03/24 02:04:02;;;;;;;23.50;6.70;;;;;;;15.37;62.03;98241.34;67586;1257;1016036;-61
2023/03/24 02:07:06;;;;;;;22.60;7.60;;;;;;;15.13;62.51;98238.56;67596;1281;1016193;-61
2023/03/24 02:10:08;;;;;;;;;;;;;;;15.04;62.68;98236.84;67627;1281;1016453;-61
2023/03/24 02:13:11;;;;;;;24.30;7.60;;;;;;;14.96;62.78;98235.48;67665;1281;1016367;-61
2023/03/24 02:16:13;;;;;;;23.50;8.30;;;;;;;14.87;63.19;98233.48;67663;1281;1016743;-61
2023/03/24 02:19:15;;;;;;;25.40;8.20;;;;;;;14.93;63.20;98226.02;67628;1281;1016483;-60
2023/03/24 02:22:18;;;;;;;25.10;8.10;;;;;;;14.81;63.30;98223.77;67614;1281;1017728;-60
2023/03/24 02:25:21;;;;;;;27.10;8.70;;;;;;;14.59;63.60;98220.52;67613;1281;1016457;-61
2023/03/24 02:28:24;;;;;;;25.30;8.90;;;;;;;14.60;63.77;98218.16;67597;1281;1016290;-61
2023/03/24 02:31:27;;;;;;;24.90;8.70;;;;;;;14.65;63.55;98220.25;67590;1281;1016427;-61
2023/03/24 02:34:32;;;;;;;24.90;9.00;;;;;;;14.57;63.80;98214.02;67619;1281;1016478;-61
2023/03/24 02:37:34;;;;;;;24.90;8.90;;;;;;;14.43;63.96;98215.40;67603;1281;1016447;-60
2023/03/24 02:40:36;;;;;;;27.70;9.40;;;;;;;14.30;64.63;98213.04;67610;1281;1016120;-61
2023/03/24 02:43:39;;;;;;;24.00;8.00;;;;;;;14.31;64.79;98210.48;67639;1281;1016339;-61
2023/03/24 02:46:41;;;;;;;;;;;;;;;14.14;65.22;98211.02;67674;1281;1016437;-60
2023/03/24 02:49:44;;;;;;;25.90;8.60;;;;;;;14.10;65.64;98212.43;67617;1281;1016878;-61
2023/03/24 02:52:47;;;;;;;24.50;9.00;;;;;;;14.10;65.60;98213.00;67650;1281;1016032;-60
2023/03/24 02:55:50;;;;;;;27.10;9.50;;;;;;;14.24;65.04;98208.95;67600;1281;1016146;-61
2023/03/24 02:58:52;;;;;;;;;;;;;;;14.23;65.27;98210.98;67613;1281;1016368;-60
2023/03/24 03:01:56;;;;;;;27.10;8.60;;;;;;;14.28;65.19;98206.71;67577;1281;1019595;-61
2023/03/24 03:04:59;;;;;;;26.20;8.70;;;;;;;14.33;65.17;98208.33;67585;1257;1016456;-61
2023/03/24 03:08:02;;;;;;;22.70;8.40;;;;;;;14.35;64.75;98208.54;67679;1281;1016493;-60
2023/03/24 03:11:04;;;;;;;27.20;8.80;;;;;;;14.32;64.78;98213.54;67627;1281;1016663;-61
2023/03/24 03:14:07;;;;;;;27.10;9.10;;;;;;;14.28;64.57;98218.13;67596;1281;1019093;-61
2023/03/24 03:17:10;;;;;;;30.40;10.30;;;;;;;14.30;64.64;98215.80;67644;1281;1016407;-60
2023/03/24 03:20:12;;;;;;;28.40;10.30;;;;;;;14.28;65.34;98214.39;67679;1281;1016518;-61
2023/03/24 03:23:15;;;;;;;26.80;10.60;;;;;;;14.31;65.81;98211.36;67661;1281;1019661;-61
2023/03/24 03:26:18;;;;;;;25.30;9.90;;;;;;;14.39;65.54;98207.10;67569;1281;1016406;-61
2023/03/24 03:29:22;;;;;;;29.20;10.40;;;;;;;14.34;65.66;98204.20;67665;1281;1016450;-60
2023/03/24 03:32:27;;;;;;;32.80;10.90;;;;;;;14.32;65.85;98201.41;67504;1281;1016267;-61
2023/03/24 03:35:29;;;;;;;26.20;9.80;;;;;;;14.29;65.82;98198.88;67593;1281;1016470;-61
2023/03/24 03:38:32;;;;;;;28.40;8.90;;;;;;;14.23;65.74;98195.52;67553;1281;1016167;-60
2023/03/24 03:41:34;;;;;;;25.80;8.30;;;;;;;14.24;65.90;98191.73;67618;1281;1016434;-61
2023/03/24 03:44:37;;;;;;;29.60;10.50;;;;;;;14.18;66.34;98189.75;67595;1281;1015797;-61
2023/03/24 03:47:39;;;;;;;32.20;10.90;;;;;;;14.21;66.33;98190.77;67645;1281;1018425;-61
2023/03/24 03:50:42;;;;;;;40.30;14.20;;;;;;;14.32;66.20;98184.14;67582;1281;1016526;-60
2023/03/24 03:53:44;;;;;;;50.40;18.80;;;;;;;14.38;66.32;98184.74;67623;1281;1016422;-61
2023/03/24 03:56:48;;;;;;;44.00;19.20;;;;;;;14.49;66.00;98187.14;67601;1281;1016445;-60
2023/03/24 03:59:51;;;;;;;40.90;16.50;;;;;;;14.46;66.24;98182.08;67615;1281;1016459;-60
2023/03/24 04:02:53;;;;;;;47.50;18.40;;;;;;;14.53;66.03;98183.27;67654;1281;1016396;-61
2023/03/24 04:06:00;;;;;;;50.30;20.00;;;;;;;14.59;66.03;98183.93;67665;1281;1016443;-61
2023/03/24 04:09:03;;;;;;;49.10;21.40;;;;;;;14.62;66.19;98177.89;67622;1281;1016861;-61
2023/03/24 04:12:06;;;;;;;34.30;14.10;;;;;;;14.65;66.28;98180.25;67646;1281;1016462;-61
2023/03/24 04:15:08;;;;;;;34.70;13.70;;;;;;;14.62;66.41;98182.48;67634;1281;1016729;-60
2023/03/24 04:18:11;;;;;;;32.20;12.70;;;;;;;14.63;66.52;98178.20;67580;1281;1016420;-60
2023/03/24 04:21:13;;;;;;;31.80;13.40;;;;;;;14.74;66.32;98174.90;67624;1281;1017692;-60
2023/03/24 04:24:15;;;;;;;31.40;11.70;;;;;;;14.80;66.07;98180.73;67683;1281;1016412;-60
2023/03/24 04:27:20;;;;;;;33.20;11.90;;;;;;;14.88;66.00;98177.89;67661;1281;1016210;-61
2023/03/24 04:30:23;;;;;;;32.70;12.60;;;;;;;14.86;66.39;98178.63;67608;1281;1016424;-61
2023/03/24 04:33:27;;;;;;;36.30;13.90;;;;;;;14.90;66.45;98177.70;67640;1281;1016500;-61
2023/03/24 04:36:30;;;;;;;36.50;14.90;;;;;;;14.96;66.70;98180.55;67625;1281;1016440;-60
2023/03/24 04:39:33;;;;;;;41.60;16.50;;;;;;;15.09;66.04;98179.36;67596;1281;1016371;-60
2023/03/24 04:42:36;;;;;;;32.10;12.30;;;;;;;15.23;65.39;98181.46;67635;1281;1016054;-60
2023/03/24 04:45:38;;;;;;;30.80;12.10;;;;;;;15.27;65.28;98181.33;67615;1281;1016364;-60
2023/03/24 04:48:40;;;;;;;35.60;13.30;;;;;;;15.29;64.96;98183.38;67612;1281;1016254;-60
2023/03/24 04:51:43;;;;;;;37.50;13.90;;;;;;;15.30;65.08;98185.78;67571;1281;1016440;-60
2023/03/24 04:54:45;;;;;;;36.10;13.20;;;;;;;15.34;65.01;98183.27;67618;1281;1016264;-60
2023/03/24 04:57:48;;;;;;;36.10;13.60;;;;;;;15.42;64.72;98189.08;67568;1281;1016308;-60
2023/03/24 05:00:50;;;;;;;32.50;13.20;;;;;;;15.46;64.65;98187.48;67652;1281;1016157;-60
2023/03/24 05:03:52;;;;;;;32.90;12.70;;;;;;;15.43;64.87;98192.76;67599;1281;1016422;-61
2023/03/24 05:06:55;;;;;;;31.40;11.60;;;;;;;15.36;65.32;98193.30;67580;1281;1016435;-60
2023/03/24 05:09:57;;;;;;;35.40;13.80;;;;;;;15.42;65.43;98195.79;67568;1281;1016198;-60
2023/03/24 05:12:59;;;;;;;37.60;14.30;;;;;;;15.44;65.27;98194.90;67657;1281;1016644;-60
2023/03/24 05:16:02;;;;;;;32.00;13.20;;;;;;;15.48;65.25;98190.86;67647;1281;1016228;-60
2023/03/24 05:19:04;;;;;;;32.00;12.60;;;;;;;15.48;65.25;98190.48;67623;1281;1016140;-60
2023/03/24 05:22:07;;;;;;;32.20;11.80;;;;;;;15.55;65.40;98189.52;67584;1281;1016947;-60
2023/03/24 05:25:09;;;;;;;31.10;12.80;;;;;;;15.55;65.23;98186.15;67558;1281;1016394;-61
2023/03/24 05:28:11;;;;;;;30.10;12.10;;;;;;;15.61;65.28;98188.98;67613;1281;1018240;-61
2023/03/24 05:31:14;;;;;;;32.40;12.00;;;;;;;15.58;65.52;98190.52;67624;1281;1016164;-60
2023/03/24 05:34:16;;;;;;;31.70;11.20;;;;;;;15.67;65.31;98190.50;67637;1281;1018803;-60
2023/03/24 05:37:18;;;;;;;29.30;11.70;;;;;;;15.70;65.74;98190.27;67638;1281;1016196;-61
2023/03/24 05:40:21;;;;;;;33.20;12.90;;;;;;;15.70;66.00;98185.83;67615;1281;1016406;-61
2023/03/24 05:43:23;;;;;;;34.00;13.00;;;;;;;15.85;65.54;98184.46;67604;1281;1016393;-60
2023/03/24 05:46:26;;;;;;;34.10;12.50;;;;;;;15.93;65.41;98179.81;67616;1281;1016219;-61
2023/03/24 05:49:28;;;;;;;30.10;11.00;;;;;;;16.02;65.32;98174.78;67648;1281;1016472;-61
2023/03/24 05:52:32;;;;;;;29.80;10.70;;;;;;;16.16;64.87;98170.14;67615;1281;1016359;-61
2023/03/24 05:55:34;;;;;;;31.50;10.90;;;;;;;16.23;64.66;98167.77;67647;1281;1016194;-61
2023/03/24 05:58:38;;;;;;;31.60;10.20;;;;;;;16.28;64.85;98163.90;67635;1281;1017282;-61
2023/03/24 06:01:41;;;;;;;29.90;11.70;;;;;;;16.38;65.09;98160.19;67647;1281;1016485;-61
2023/03/24 06:04:45;;;;;;;36.50;13.10;;;;;;;16.56;65.06;98156.34;67582;1281;1016527;-61
2023/03/24 06:07:47;;;;;;;35.30;14.10;;;;;;;16.71;65.28;98152.23;67614;1281;1016510;-61
2023/03/24 06:10:52;;;;;;;33.20;13.40;;;;;;;16.89;64.67;98152.41;67631;1281;1016467;-61
2023/03/24 06:13:57;;;;;;;30.70;11.80;;;;;;;17.03;64.52;98147.52;67624;1281;1016257;-61
2023/03/24 06:17:00;;;;;;;35.50;12.10;;;;;;;17.25;64.04;98145.08;67660;1281;1016362;-61
2023/03/24 06:20:04;;;;;;;32.70;11.30;;;;;;;17.36;63.96;98143.63;67658;1281;1016374;-61
2023/03/24 06:23:07;;;;;;;31.80;11.40;;;;;;;17.44;63.60;98147.52;67642;1281;1016519;-61
2023/03/24 06:26:10;;;;;;;31.30;11.70;;;;;;;17.46;63.36;98146.31;67619;1281;1016446;-61
2023/03/24 06:29:17;;;;;;;33.00;12.00;;;;;;;17.45;63.40;98147.84;67628;1281;1018843;-61
2023/03/24 06:32:19;;;;;;;31.50;11.10;;;;;;;17.47;63.28;98148.86;67583;1281;1016461;-61
2023/03/24 06:35:21;;;;;;;33.50;11.10;;;;;;;17.41;63.37;98141.73;67593;1281;1016204;-60
2023/03/24 06:38:24;;;;;;;34.90;11.80;;;;;;;17.43;62.96;98140.44;67602;1281;1016221;-61
2023/03/24 06:41:26;;;;;;;34.70;12.50;;;;;;;17.54;62.48;98135.23;67629;1281;1016502;-61
2023/03/24 06:44:29;;;;;;;36.10;12.80;;;;;;;17.58;62.43;98128.13;67670;1281;1016362;-60
2023/03/24 06:47:31;;;;;;;33.50;11.70;;;;;;;17.63;62.47;98128.00;67603;1281;1016517;-60
2023/03/24 06:50:34;;;;;;;32.30;10.80;;;;;;;17.76;61.78;98126.39;67594;1281;1016435;-61
2023/03/24 06:53:40;;;;;;;30.90;11.50;;;;;;;17.88;61.31;98129.55;67627;1281;1016311;-61
2023/03/24 06:56:42;;;;;;;28.40;11.00;;;;;;;17.94;61.22;98126.26;67634;1281;1016291;-61
2023/03/24 06:59:45;;;;;;;32.00;11.80;;;;;;;18.08;61.04;98127.50;67601;1281;1016440;-61
2023/03/24 07:02:47;;;;;;;33.60;12.00;;;;;;;18.12;60.82;98123.42;67654;1281;1019297;-61
2023/03/24 07:05:49;;;;;;;31.50;11.20;;;;;;;18.26;60.68;98121.46;67610;1281;1019588;-61
2023/03/24 07:08:52;;;;;;;28.40;10.30;;;;;;;18.31;60.28;98121.09;67584;1281;1016528;-61
2023/03/24 07:11:54;;;;;;;;;;;;;;;18.34;60.29;98123.81;67591;1281;1017906;-61
2023/03/24 07:14:57;;;;;;;30.50;10.50;;;;;;;18.19;60.54;98122.44;67623;1281;1016114;-61
2023/03/24 07:17:59;;;;;;;;;;;;;;;18.23;60.64;98121.98;67659;1281;1019272;-61
2023/03/24 07:21:02;;;;;;;29.90;10.30;;;;;;;18.33;60.38;98112.73;67623;1281;1016445;-61
2023/03/24 07:24:04;;;;;;;28.70;9.60;;;;;;;18.40;60.29;98113.44;67579;1281;1016921;-61
2023/03/24 07:27:07;;;;;;;;;;;;;;;18.51;59.93;98111.60;67659;1281;1015884;-61
2023/03/24 07:30:09;;;;;;;29.10;9.60;;;;;;;18.60;59.51;98109.73;67618;1281;1015911;-61
2023/03/24 07:33:12;;;;;;;27.50;9.90;;;;;;;18.66;59.74;98103.46;67616;1281;1016341;-61
2023/03/24 07:36:14;;;;;;;28.30;9.80;;;;;;;18.79;59.40;98107.61;67546;1281;1018200;-61
2023/03/24 07:39:16;;;;;;;28.80;10.90;;;;;;;18.91;59.34;98108.13;67636;1281;1016518;-61
2023/03/24 07:42:19;;;;;;;27.70;11.20;;;;;;;19.02;59.27;98117.23;67628;1281;1016493;-61
2023/03/24 07:45:21;;;;;;;25.60;9.60;;;;;;;19.15;59.12;98116.89;67613;1281;1016733;-61
2023/03/24 07:48:24;;;;;;;29.10;11.10;;;;;;;19.25;58.76;98109.41;67586;1281;1019188;-61
2023/03/24 07:51:26;;;;;;;27.80;9.70;;;;;;;19.42;58.10;98106.86;67596;1281;1016491;-61
2023/03/24 07:54:28;;;;;;;25.60;9.10;;;;;;;19.53;58.16;98102.43;67564;1281;1016347;-61
2023/03/24 07:57:31;;;;;;;;;;;;;;;19.73;57.88;98100.80;67631;1281;1016562;-61
2023/03/24 08:00:33;;;;;;;22.80;8.60;;;;;;;19.81;57.98;98099.58;67638;1281;1015883;-61
2023/03/24 08:03:35;;;;;;;23.40;8.30;;;;;;;19.92;57.66;98102.29;67621;1281;1016396;-61
2023/03/24 08:06:38;;;;;;;;;;;;;;;19.99;57.28;98098.34;67612;1281;1016905;-61
2023/03/24 08:09:41;;;;;;;24.10;8.00;;;;;;;20.01;57.11;98089.59;67567;1281;1018677;-61
2023/03/24 08:12:43;;;;;;;25.20;7.90;;;;;;;20.12;57.44;98088.33;67622;1281;1016450;-61
2023/03/24 08:15:46;;;;;;;;;;;;;;;20.32;57.12;98082.03;67599;1281;1016472;-61
2023/03/24 08:18:49;;;;;;;22.30;6.80;;;;;;;20.54;56.82;98073.93;67590;1281;1016630;-61
2023/03/24 08:21:51;;;;;;;21.70;6.60;;;;;;;20.87;56.25;98070.30;67614;1281;1016470;-61
2023/03/24 08:24:54;;;;;;;;;;;;;;;21.07;54.81;98059.25;67607;1279;1016352;-61
2023/03/24 08:27:56;;;;;;;21.00;6.90;;;;;;;21.14;54.76;98059.92;67580;1281;1017159;-61
2023/03/24 08:30:59;;;;;;;20.90;6.60;;;;;;;21.22;54.45;98054.20;67522;1281;1016291;-61
2023/03/24 08:34:03;;;;;;;21.30;6.20;;;;;;;21.16;54.56;98059.52;67619;1281;1016431;-61
2023/03/24 08:37:06;;;;;;;18.80;6.00;;;;;;;21.21;54.12;98061.27;67618;1281;1016424;-61
2023/03/24 08:40:12;;;;;;;20.10;6.00;;;;;;;21.11;53.49;98057.55;67594;1281;1016630;-61
2023/03/24 08:43:14;;;;;;;20.90;6.10;;;;;;;21.09;53.99;98055.84;67575;1281;1016319;-61
2023/03/24 08:46:17;;;;;;;;;;;;;;;21.30;54.24;98055.95;67579;1281;1016184;-61
2023/03/24 08:49:20;;;;;;;20.00;6.20;;;;;;;21.32;53.94;98048.69;67542;1281;1016181;-61
2023/03/24 08:52:22;;;;;;;21.90;6.00;;;;;;;21.30;53.69;98042.95;67536;1281;1015771;-61
2023/03/24 08:55:25;;;;;;;;;;;;;;;21.13;53.43;98040.60;67614;1281;1016476;-61
2023/03/24 08:58:27;;;;;;;21.30;6.90;;;;;;;21.03;53.55;98044.48;67614;1281;1016475;-61
2023/03/24 09:01:30;;;;;;;;;;;;;;;21.31;53.90;98041.70;67609;1281;1018404;-61
2023/03/24 09:04:32;;;;;;;19.90;5.80;;;;;;;21.63;53.16;98038.14;67620;1281;1018037;-61
2023/03/24 09:07:34;;;;;;;;;;;;;;;21.77;52.32;98040.55;67644;1281;1016456;-61
2023/03/24 09:10:37;;;;;;;18.70;5.90;;;;;;;21.79;52.15;98040.55;67619;1281;1018887;-61
2023/03/24 09:13:39;;;;;;;18.30;5.90;;;;;;;21.73;52.02;98044.08;67562;1281;1016376;-61
2023/03/24 09:16:42;;;;;;;;;;;;;;;21.64;52.22;98038.08;67615;1281;1016547;-61
2023/03/24 09:19:46;;;;;;;18.40;5.50;;;;;;;21.70;51.70;98034.54;67601;1281;1016243;-61
2023/03/24 09:22:49;;;;;;;17.60;5.10;;;;;;;21.84;51.74;98034.77;67584;1281;1016452;-61
2023/03/24 09:25:52;;;;;;;18.10;5.30;;;;;;;22.02;52.18;98033.89;67590;1281;1015594;-61
2023/03/24 09:28:55;;;;;;;20.50;6.10;;;;;;;22.20;51.17;98025.98;67638;1281;1016288;-61
2023/03/24 09:31:57;;;;;;;16.40;4.50;;;;;;;22.25;50.28;98029.33;67600;1281;1016405;-61
2023/03/24 09:34:59;;;;;;;;;;;;;;;22.50;49.71;98029.16;67611;1281;1016079;-61
2023/03/24 09:38:02;;;;;;;16.60;4.70;;;;;;;22.36;49.72;98025.80;67625;1281;1016335;-61
2023/03/24 09:41:04;;;;;;;;;;;;;;;22.28;50.07;98028.86;67604;1281;1016076;-61
2023/03/24 09:44:07;;;;;;;;;;;;;;;22.36;50.58;98022.15;67628;1281;1016443;-62
2023/03/24 09:47:10;;;;;;;;;;;;;;;22.49;49.94;98022.87;67630;1281;1016536;-61
2023/03/24 09:50:12;;;;;;;18.10;5.10;;;;;;;22.72;49.73;98016.20;67615;1281;1016999;-61
2023/03/24 09:53:15;;;;;;;14.60;4.10;;;;;;;22.91;48.76;98012.87;67565;1281;1016680;-61
2023/03/24 09:56:17;;;;;;;16.30;4.30;;;;;;;22.96;48.13;98005.80;67622;1281;1016507;-62
2023/03/24 09:59:20;;;;;;;16.70;4.00;;;;;;;22.89;47.38;98006.52;67631;1281;1016456;-61
2023/03/24 10:02:22;;;;;;;13.00;3.50;;;;;;;22.61;47.33;98011.69;67597;1281;1017428;-61
2023/03/24 10:05:24;;;;;;;12.40;3.80;;;;;;;22.47;47.93;98012.04;67548;1281;1016365;-61
2023/03/24 10:08:27;;;;;;;10.90;3.30;;;;;;;22.37;47.74;98007.33;67578;1281;1016481;-61
2023/03/24 10:11:29;;;;;;;12.20;3.20;;;;;;;22.13;47.10;98003.88;67654;1281;1016541;-61
2023/03/24 10:14:32;;;;;;;12.00;3.40;;;;;;;22.00;47.42;97996.04;67628;1281;1016291;-61
2023/03/24 10:17:34;;;;;;;;;;;;;;;21.96;47.91;97994.55;67547;1281;1016444;-61
2023/03/24 10:20:36;;;;;;;;;;;;;;;22.04;48.20;97990.46;67576;1281;1016452;-61
2023/03/24 10:23:39;;;;;;;10.60;3.10;;;;;;;22.32;47.28;97994.39;67511;1281;1016358;-61
2023/03/24 10:26:41;;;;;;;13.90;3.80;;;;;;;22.36;47.55;97990.06;67563;1281;1018644;-61
2023/03/24 10:29:45;;;;;;;12.60;3.60;;;;;;;22.45;46.74;97985.26;67556;1281;1019611;-61
2023/03/24 10:32:47;;;;;;;10.60;3.20;;;;;;;22.71;46.47;97977.53;67628;1281;1016568;-61
2023/03/24 10:35:50;;;;;;;9.50;3.10;;;;;;;23.05;45.32;97970.95;67634;1281;1016395;-61
2023/03/24 10:38:52;;;;;;;10.80;3.20;;;;;;;23.44;45.17;97971.36;67636;1281;1015875;-61
2023/03/24 10:41:54;;;;;;;11.40;3.30;;;;;;;23.48;45.22;97970.58;67605;1281;1016456;-62
2023/03/24 10:44:57;;;;;;;7.70;2.80;;;;;;;23.26;44.88;97976.04;67572;1281;1016505;-61
2023/03/24 10:47:59;;;;;;;12.20;3.00;;;;;;;23.16;45.38;97969.21;67637;1257;1015700;-61
2023/03/24 10:51:02;;;;;;;10.00;2.60;;;;;;;23.13;44.21;97962.11;67636;1281;1016498;-61
2023/03/24 10:54:04;;;;;;;10.00;3.00;;;;;;;22.87;44.67;97959.90;67559;1281;1016675;-61
2023/03/24 10:57:07;;;;;;;7.50;2.60;;;;;;;22.95;44.21;97949.64;67594;1281;1016538;-62
2023/03/24 11:00:13;;;;;;;11.10;3.30;;;;;;;22.77;44.90;97956.52;67563;1281;1016408;-61
2023/03/24 11:03:15;;;;;;;9.90;3.00;;;;;;;22.83;44.92;97964.14;67568;1281;1017160;-61
2023/03/24 11:06:17;;;;;;;11.00;3.00;;;;;;;22.85;45.25;97957.05;67516;1281;1016361;-61
2023/03/24 11:09:20;;;;;;;12.10;3.20;;;;;;;22.84;44.17;97957.38;67595;1281;1016498;-62
2023/03/24 11:12:23;;;;;;;10.10;3.00;;;;;;;22.77;44.54;97958.99;67570;1281;1016452;-61
2023/03/24 11:15:27;;;;;;;9.80;3.00;;;;;;;22.66;45.08;97952.86;67621;1281;1018390;-61
2023/03/24 11:18:31;;;;;;;10.00;2.90;;;;;;;22.54;44.86;97948.60;67633;1281;1016397;-61
2023/03/24 11:21:34;;;;;;;9.90;3.40;;;;;;;22.33;45.29;97953.23;67589;1281;1016480;-61
2023/03/24 11:24:36;;;;;;;9.20;3.00;;;;;;;22.17;44.58;97953.84;67573;1281;1016296;-61
2023/03/24 11:27:38;;;;;;;11.10;3.20;;;;;;;22.12;44.76;97945.41;67616;1281;1016420;-61
2023/03/24 11:30:41;;;;;;;10.80;3.40;;;;;;;22.22;45.17;97938.27;67609;1281;1016217;-61
2023/03/24 11:33:44;;;;;;;12.90;3.40;;;;;;;22.29;45.76;97935.98;67636;1281;1016886;-61
2023/03/24 11:36:46;;;;;;;12.80;3.70;;;;;;;22.44;45.41;97929.98;67578;1281;1018479;-61
2023/03/24 11:39:49;;;;;;;11.90;3.40;;;;;;;22.74;45.30;97928.17;67614;1281;1016509;-61
2023/03/24 11:42:51;;;;;;;10.80;3.40;;;;;;;22.96;43.80;97915.42;67622;1281;1018104;-61
2023/03/24 11:45:53;;;;;;;13.70;3.50;;;;;;;22.94;43.90;97915.16;67550;1281;1016521;-62
2023/03/24 11:48:56;;;;;;;11.50;3.70;;;;;;;22.91;43.69;97918.96;67585;1281;1017323;-61
2023/03/24 11:51:58;;;;;;;11.70;3.50;;;;;;;22.89;43.78;97908.80;67590;1281;1016388;-61
2023/03/24 11:55:00;;;;;;;11.50;3.40;;;;;;;23.16;43.66;97900.77;67586;1281;1016314;-62
2023/03/24 11:58:03;;;;;;;14.10;3.50;;;;;;;23.24;43.22;97896.86;67590;1281;1016144;-61
2023/03/24 12:01:06;;;;;;;12.10;3.70;;;;;;;23.47;43.86;97901.47;67651;1281;1016446;-62
2023/03/24 12:04:08;;;;;;;12.90;3.80;;;;;;;23.70;42.63;97892.37;67587;1281;1016001;-61
2023/03/24 12:07:11;;;;;;;14.20;3.80;;;;;;;23.69;42.73;97890.59;67604;1281;1016079;-61
2023/03/24 12:10:14;;;;;;;12.50;3.90;;;;;;;23.70;43.09;97882.64;67645;1281;1016475;-61
2023/03/24 12:13:17;;;;;;;12.10;4.00;;;;;;;23.84;43.65;97876.83;67613;1281;1016157;-62
2023/03/24 12:16:20;;;;;;;12.80;4.30;;;;;;;24.07;43.18;97872.81;67562;1281;1016220;-62
2023/03/24 12:19:22;;;;;;;17.10;4.90;;;;;;;24.13;42.84;97866.46;67654;1281;1019469;-62
2023/03/24 12:22:24;;;;;;;18.90;5.40;;;;;;;24.22;41.94;97863.14;67579;1281;1016101;-62
2023/03/24 12:25:27;;;;;;;17.80;5.60;;;;;;;24.25;42.13;97859.70;67583;1281;1016490;-62
2023/03/24 12:28:30;;;;;;;17.20;5.00;;;;;;;24.23;41.22;97858.16;67532;1281;1016356;-62
2023/03/24 12:31:33;;;;;;;17.20;5.20;;;;;;;24.15;41.26;97858.19;67538;1281;1018983;-62
2023/03/24 12:34:36;;;;;;;15.30;4.90;;;;;;;24.33;40.92;97850.73;67587;1281;1016485;-62
2023/03/24 12:37:39;;;;;;;19.10;5.50;;;;;;;24.40;41.05;97854.04;67609;1281;1018621;-62
2023/03/24 12:40:42;;;;;;;19.90;5.60;;;;;;;24.49;41.26;97850.34;67580;1281;1016469;-62
2023/03/24 12:43:44;;;;;;;16.90;5.20;;;;;;;24.58;41.15;97839.23;67610;1281;1016493;-62
2023/03/24 12:46:46;;;;;;;15.80;4.90;;;;;;;24.67;40.66;97842.56;67603;1281;1016808;-62
2023/03/24 12:49:49;;;;;;;18.30;6.10;;;;;;;24.67;40.11;97829.33;67605;1281;1015913;-62
2023/03/24 12:52:51;;;;;;;19.20;6.30;;;;;;;24.90;40.69;97827.91;67621;1281;1016422;-62
2023/03/24 12:55:54;;;;;;;20.50;5.20;;;;;;;25.26;39.89;97826.65;67600;1281;1016483;-62
2023/03/24 12:58:56;;;;;;;16.80;5.60;;;;;;;25.53;40.09;97823.83;67648;1281;1018563;-62
2023/03/24 13:01:59;;;;;;;18.90;6.00;;;;;;;25.56;38.22;97807.34;67631;1281;1017117;-62
2023/03/24 13:05:04;;;;;;;19.70;5.80;;;;;;;25.77;39.43;97812.70;67576;1281;1016238;-62
2023/03/24 13:08:07;;;;;;;19.10;5.90;;;;;;;26.09;38.97;97803.88;67556;1281;1016407;-62
2023/03/24 13:11:09;;;;;;;21.10;6.20;;;;;;;26.27;38.22;97803.56;67646;1281;1016433;-62
2023/03/24 13:14:12;;;;;;;17.40;5.90;;;;;;;26.40;36.80;97796.17;67584;1281;1016432;-62
2023/03/24 13:17:15;;;;;;;17.40;5.90;;;;;;;26.33;37.11;97788.92;67573;1281;1016375;-62
2023/03/24 13:20:17;;;;;;;19.80;6.40;;;;;;;26.07;36.32;97794.36;65048;1281;5381663;-62
2023/03/24 13:23:20;;;;;;;19.90;6.80;;;;;;;25.91;37.47;97790.91;67567;1281;1016203;-62
2023/03/24 13:26:23;;;;;;;17.90;5.90;;;;;;;25.65;36.04;97781.14;67582;1281;1016466;-62
2023/03/24 13:29:26;;;;;;;15.60;5.50;;;;;;;25.37;36.65;97782.86;67621;1281;1016311;-62
2023/03/24 13:32:29;;;;;;;20.70;6.10;;;;;;;25.34;36.66;97780.52;67629;1281;1017043;-62
2023/03/24 13:35:32;;;;;;;19.50;6.20;;;;;;;25.35;36.40;97774.41;67601;1281;1018600;-62
2023/03/24 13:38:34;;;;;;;18.50;6.10;;;;;;;25.22;36.70;97767.63;67606;1281;1016314;-62
2023/03/24 13:41:38;;;;;;;20.10;6.10;;;;;;;25.17;36.53;97763.98;67552;1281;1017012;-62
2023/03/24 13:44:42;;;;;;;18.70;5.90;;;;;;;25.08;37.04;97765.92;67568;1281;1016466;-62
2023/03/24 13:47:45;;;;;;;19.60;6.30;;;;;;;24.96;36.93;97760.02;67603;1281;1016447;-62
2023/03/24 13:50:47;;;;;;;18.30;5.50;;;;;;;24.55;36.64;97759.20;67621;1281;1016480;-62
2023/03/24 13:53:50;;;;;;;20.00;5.30;;;;;;;24.22;37.29;97756.82;67579;1281;1016307;-62